sensor_id;sensor_type;location;lat;lon;timestamp;P1;durP1;ratioP1;P2;durP2;ratioP2
10967;SDS011;5536;49.602;10.980;2024-01-07T00:00:47;4.10;;;3.80;;
10967;SDS011;5536;49.602;10.980;2024-01-07T00:03:14;7.37;;;4.47;;
10967;SDS011;5536;49.602;10.980;2024-01-07T00:05:41;7.23;;;4.50;;
10967;SDS011;5536;49.602;10.980;2024-01-07T00:08:10;4.20;;;3.80;;
10967;SDS011;5536;49.602;10.980;2024-01-07T00:10:37;4.47;;;3.13;;
10967;SDS011;5536;49.602;10.980;2024-01-07T00:13:04;7.00;;;4.40;;
10967;SDS011;5536;49.602;10.980;2024-01-07T00:15:31;4.03;;;3.27;;
10967;SDS011;5536;49.602;10.980;2024-01-07T00:17:58;4.07;;;3.70;;
10967;SDS011;5536;49.602;10.980;2024-01-07T00:20:25;3.83;;;3.43;;
10967;SDS011;5536;49.602;10.980;2024-01-07T00:22:52;3.83;;;3.53;;
10967;SDS011;5536;49.602;10.980;2024-01-07T00:25:20;4.47;;;3.63;;
10967;SDS011;5536;49.602;10.980;2024-01-07T00:27:47;5.03;;;3.30;;
10967;SDS011;5536;49.602;10.980;2024-01-07T00:30:16;4.07;;;3.60;;
10967;SDS011;5536;49.602;10.980;2024-01-07T00:32:44;3.57;;;3.27;;
10967;SDS011;5536;49.602;10.980;2024-01-07T00:35:11;5.43;;;3.30;;
10967;SDS011;5536;49.602;10.980;2024-01-07T00:37:38;5.00;;;3.60;;
10967;SDS011;5536;49.602;10.980;2024-01-07T00:40:06;2.93;;;2.73;;
10967;SDS011;5536;49.602;10.980;2024-01-07T00:42:35;4.13;;;3.57;;
10967;SDS011;5536;49.602;10.980;2024-01-07T00:45:02;7.80;;;4.53;;
10967;SDS011;5536;49.602;10.980;2024-01-07T00:47:30;4.17;;;3.30;;
10967;SDS011;5536;49.602;10.980;2024-01-07T00:49:57;5.57;;;3.90;;
10967;SDS011;5536;49.602;10.980;2024-01-07T00:52:24;3.90;;;3.00;;
10967;SDS011;5536;49.602;10.980;2024-01-07T00:54:51;7.00;;;3.70;;
10967;SDS011;5536;49.602;10.980;2024-01-07T00:57:18;5.37;;;3.73;;
10967;SDS011;5536;49.602;10.980;2024-01-07T00:59:46;4.87;;;3.67;;
10967;SDS011;5536;49.602;10.980;2024-01-07T01:02:15;4.47;;;3.60;;
10967;SDS011;5536;49.602;10.980;2024-01-07T01:04:42;3.80;;;3.43;;
10967;SDS011;5536;49.602;10.980;2024-01-07T01:07:09;5.87;;;3.87;;
10967;SDS011;5536;49.602;10.980;2024-01-07T01:09:36;4.63;;;3.50;;
10967;SDS011;5536;49.602;10.980;2024-01-07T01:12:04;4.63;;;3.83;;
10967;SDS011;5536;49.602;10.980;2024-01-07T01:14:31;2.93;;;2.63;;
10967;SDS011;5536;49.602;10.980;2024-01-07T01:16:59;3.30;;;3.00;;
10967;SDS011;5536;49.602;10.980;2024-01-07T01:19:27;4.90;;;3.63;;
10967;SDS011;5536;49.602;10.980;2024-01-07T01:21:54;4.47;;;3.70;;
10967;SDS011;5536;49.602;10.980;2024-01-07T01:24:21;3.03;;;2.80;;
10967;SDS011;5536;49.602;10.980;2024-01-07T01:26:48;6.83;;;3.70;;
10967;SDS011;5536;49.602;10.980;2024-01-07T01:29:15;5.20;;;4.07;;
10967;SDS011;5536;49.602;10.980;2024-01-07T01:31:42;3.87;;;3.17;;
10967;SDS011;5536;49.602;10.980;2024-01-07T01:34:10;4.23;;;3.47;;
10967;SDS011;5536;49.602;10.980;2024-01-07T01:36:37;4.37;;;3.97;;
10967;SDS011;5536;49.602;10.980;2024-01-07T01:39:04;4.97;;;3.73;;
10967;SDS011;5536;49.602;10.980;2024-01-07T01:41:31;4.87;;;3.53;;
10967;SDS011;5536;49.602;10.980;2024-01-07T01:43:58;8.37;;;3.90;;
10967;SDS011;5536;49.602;10.980;2024-01-07T01:46:26;4.27;;;3.27;;
10967;SDS011;5536;49.602;10.980;2024-01-07T01:48:55;3.67;;;3.30;;
10967;SDS011;5536;49.602;10.980;2024-01-07T01:51:23;3.23;;;2.90;;
10967;SDS011;5536;49.602;10.980;2024-01-07T01:53:50;3.50;;;2.97;;
10967;SDS011;5536;49.602;10.980;2024-01-07T01:56:18;4.60;;;3.37;;
10967;SDS011;5536;49.602;10.980;2024-01-07T01:58:46;3.87;;;3.00;;
10967;SDS011;5536;49.602;10.980;2024-01-07T02:01:13;3.57;;;3.07;;
10967;SDS011;5536;49.602;10.980;2024-01-07T02:03:41;7.53;;;3.50;;
10967;SDS011;5536;49.602;10.980;2024-01-07T02:06:08;4.70;;;3.40;;
10967;SDS011;5536;49.602;10.980;2024-01-07T02:08:38;5.80;;;3.50;;
10967;SDS011;5536;49.602;10.980;2024-01-07T02:11:16;4.17;;;3.40;;
10967;SDS011;5536;49.602;10.980;2024-01-07T02:13:43;4.23;;;3.70;;
10967;SDS011;5536;49.602;10.980;2024-01-07T02:16:11;4.03;;;2.97;;
10967;SDS011;5536;49.602;10.980;2024-01-07T02:18:38;3.37;;;3.07;;
10967;SDS011;5536;49.602;10.980;2024-01-07T02:21:07;2.50;;;2.30;;
10967;SDS011;5536;49.602;10.980;2024-01-07T02:23:35;5.73;;;3.10;;
10967;SDS011;5536;49.602;10.980;2024-01-07T02:26:05;3.17;;;2.80;;
10967;SDS011;5536;49.602;10.980;2024-01-07T02:28:32;3.27;;;2.63;;
10967;SDS011;5536;49.602;10.980;2024-01-07T02:31:00;3.07;;;2.70;;
10967;SDS011;5536;49.602;10.980;2024-01-07T02:33:27;5.43;;;3.53;;
10967;SDS011;5536;49.602;10.980;2024-01-07T02:35:55;3.20;;;2.90;;
10967;SDS011;5536;49.602;10.980;2024-01-07T02:38:22;3.37;;;2.50;;
10967;SDS011;5536;49.602;10.980;2024-01-07T02:40:50;3.33;;;2.77;;
10967;SDS011;5536;49.602;10.980;2024-01-07T02:43:18;6.07;;;2.77;;
10967;SDS011;5536;49.602;10.980;2024-01-07T02:45:45;3.50;;;2.70;;
10967;SDS011;5536;49.602;10.980;2024-01-07T02:48:12;2.77;;;2.47;;
10967;SDS011;5536;49.602;10.980;2024-01-07T02:50:39;4.53;;;3.47;;
10967;SDS011;5536;49.602;10.980;2024-01-07T02:53:06;2.97;;;2.73;;
10967;SDS011;5536;49.602;10.980;2024-01-07T02:55:36;2.77;;;2.57;;
10967;SDS011;5536;49.602;10.980;2024-01-07T02:58:03;2.87;;;2.63;;
10967;SDS011;5536;49.602;10.980;2024-01-07T03:00:31;4.57;;;3.63;;
10967;SDS011;5536;49.602;10.980;2024-01-07T03:02:58;6.47;;;3.83;;
10967;SDS011;5536;49.602;10.980;2024-01-07T03:05:25;3.77;;;3.13;;
10967;SDS011;5536;49.602;10.980;2024-01-07T03:07:54;4.17;;;3.70;;
10967;SDS011;5536;49.602;10.980;2024-01-07T03:10:21;4.17;;;2.93;;
10967;SDS011;5536;49.602;10.980;2024-01-07T03:12:48;4.67;;;3.33;;
10967;SDS011;5536;49.602;10.980;2024-01-07T03:15:15;4.93;;;3.00;;
10967;SDS011;5536;49.602;10.980;2024-01-07T03:17:43;3.03;;;2.60;;
10967;SDS011;5536;49.602;10.980;2024-01-07T03:20:11;5.23;;;3.00;;
10967;SDS011;5536;49.602;10.980;2024-01-07T03:22:38;5.40;;;3.77;;
10967;SDS011;5536;49.602;10.980;2024-01-07T03:25:05;5.43;;;3.17;;
10967;SDS011;5536;49.602;10.980;2024-01-07T03:27:33;3.57;;;3.23;;
10967;SDS011;5536;49.602;10.980;2024-01-07T03:30:00;3.33;;;2.77;;
10967;SDS011;5536;49.602;10.980;2024-01-07T03:32:28;5.83;;;3.50;;
10967;SDS011;5536;49.602;10.980;2024-01-07T03:34:56;4.20;;;2.87;;
10967;SDS011;5536;49.602;10.980;2024-01-07T03:37:23;4.03;;;2.57;;
10967;SDS011;5536;49.602;10.980;2024-01-07T03:39:50;3.07;;;2.80;;
10967;SDS011;5536;49.602;10.980;2024-01-07T03:42:17;11.57;;;3.00;;
10967;SDS011;5536;49.602;10.980;2024-01-07T03:44:44;3.87;;;2.50;;
10967;SDS011;5536;49.602;10.980;2024-01-07T03:47:11;3.67;;;3.37;;
10967;SDS011;5536;49.602;10.980;2024-01-07T03:49:38;4.93;;;4.00;;
10967;SDS011;5536;49.602;10.980;2024-01-07T03:52:07;4.63;;;3.60;;
10967;SDS011;5536;49.602;10.980;2024-01-07T03:54:34;2.97;;;2.77;;
10967;SDS011;5536;49.602;10.980;2024-01-07T03:57:01;2.70;;;2.50;;
10967;SDS011;5536;49.602;10.980;2024-01-07T03:59:28;5.13;;;3.33;;
10967;SDS011;5536;49.602;10.980;2024-01-07T04:01:56;6.17;;;2.83;;
10967;SDS011;5536;49.602;10.980;2024-01-07T04:04:23;3.60;;;2.73;;
10967;SDS011;5536;49.602;10.980;2024-01-07T04:06:50;3.40;;;2.80;;
10967;SDS011;5536;49.602;10.980;2024-01-07T04:09:19;4.70;;;3.27;;
10967;SDS011;5536;49.602;10.980;2024-01-07T04:11:46;4.27;;;2.70;;
10967;SDS011;5536;49.602;10.980;2024-01-07T04:14:14;2.73;;;2.53;;
10967;SDS011;5536;49.602;10.980;2024-01-07T04:16:41;2.40;;;2.20;;
10967;SDS011;5536;49.602;10.980;2024-01-07T04:19:09;3.00;;;2.73;;
10967;SDS011;5536;49.602;10.980;2024-01-07T04:21:36;3.73;;;3.10;;
10967;SDS011;5536;49.602;10.980;2024-01-07T04:24:03;2.90;;;2.70;;
10967;SDS011;5536;49.602;10.980;2024-01-07T04:26:32;2.67;;;2.47;;
10967;SDS011;5536;49.602;10.980;2024-01-07T04:28:59;2.33;;;2.13;;
10967;SDS011;5536;49.602;10.980;2024-01-07T04:31:26;3.00;;;2.27;;
10967;SDS011;5536;49.602;10.980;2024-01-07T04:33:53;2.73;;;2.47;;
10967;SDS011;5536;49.602;10.980;2024-01-07T04:36:20;2.90;;;2.10;;
10967;SDS011;5536;49.602;10.980;2024-01-07T04:38:47;2.23;;;2.03;;
10967;SDS011;5536;49.602;10.980;2024-01-07T04:41:14;2.20;;;2.10;;
10967;SDS011;5536;49.602;10.980;2024-01-07T04:43:43;1.90;;;1.80;;
10967;SDS011;5536;49.602;10.980;2024-01-07T04:46:11;2.50;;;2.30;;
10967;SDS011;5536;49.602;10.980;2024-01-07T04:48:38;3.00;;;2.70;;
10967;SDS011;5536;49.602;10.980;2024-01-07T04:51:05;3.43;;;3.00;;
10967;SDS011;5536;49.602;10.980;2024-01-07T04:53:33;5.30;;;2.67;;
10967;SDS011;5536;49.602;10.980;2024-01-07T04:56:00;2.10;;;2.00;;
10967;SDS011;5536;49.602;10.980;2024-01-07T04:58:27;4.20;;;3.03;;
10967;SDS011;5536;49.602;10.980;2024-01-07T05:00:56;2.70;;;2.43;;
10967;SDS011;5536;49.602;10.980;2024-01-07T05:03:23;2.07;;;1.90;;
10967;SDS011;5536;49.602;10.980;2024-01-07T05:05:50;2.80;;;2.60;;
10967;SDS011;5536;49.602;10.980;2024-01-07T05:08:17;2.47;;;1.93;;
10967;SDS011;5536;49.602;10.980;2024-01-07T05:10:44;2.43;;;2.23;;
10967;SDS011;5536;49.602;10.980;2024-01-07T05:13:12;2.37;;;2.17;;
10967;SDS011;5536;49.602;10.980;2024-01-07T05:15:39;3.03;;;2.73;;
10967;SDS011;5536;49.602;10.980;2024-01-07T05:18:08;2.33;;;2.13;;
10967;SDS011;5536;49.602;10.980;2024-01-07T05:20:36;4.73;;;2.83;;
10967;SDS011;5536;49.602;10.980;2024-01-07T05:23:03;4.93;;;2.20;;
10967;SDS011;5536;49.602;10.980;2024-01-07T05:25:30;2.40;;;2.20;;
10967;SDS011;5536;49.602;10.980;2024-01-07T05:27:58;2.90;;;2.23;;
10967;SDS011;5536;49.602;10.980;2024-01-07T05:30:25;3.47;;;2.20;;
10967;SDS011;5536;49.602;10.980;2024-01-07T05:32:52;3.20;;;2.77;;
10967;SDS011;5536;49.602;10.980;2024-01-07T05:35:21;2.20;;;2.10;;
10967;SDS011;5536;49.602;10.980;2024-01-07T05:37:48;2.73;;;2.40;;
10967;SDS011;5536;49.602;10.980;2024-01-07T05:40:15;1.90;;;1.80;;
10967;SDS011;5536;49.602;10.980;2024-01-07T05:42:42;3.60;;;2.67;;
10967;SDS011;5536;49.602;10.980;2024-01-07T05:45:09;2.77;;;2.57;;
10967;SDS011;5536;49.602;10.980;2024-01-07T05:47:36;2.73;;;2.53;;
10967;SDS011;5536;49.602;10.980;2024-01-07T05:50:05;2.77;;;2.47;;
10967;SDS011;5536;49.602;10.980;2024-01-07T05:52:34;4.90;;;2.97;;
10967;SDS011;5536;49.602;10.980;2024-01-07T05:55:01;2.97;;;2.63;;
10967;SDS011;5536;49.602;10.980;2024-01-07T05:57:29;3.67;;;2.90;;
10967;SDS011;5536;49.602;10.980;2024-01-07T05:59:56;4.07;;;2.60;;
10967;SDS011;5536;49.602;10.980;2024-01-07T06:02:23;2.50;;;2.23;;
10967;SDS011;5536;49.602;10.980;2024-01-07T06:04:50;2.57;;;2.37;;
10967;SDS011;5536;49.602;10.980;2024-01-07T06:07:17;4.67;;;3.33;;
10967;SDS011;5536;49.602;10.980;2024-01-07T06:09:46;3.00;;;2.80;;
10967;SDS011;5536;49.602;10.980;2024-01-07T06:12:13;2.50;;;2.30;;
10967;SDS011;5536;49.602;10.980;2024-01-07T06:14:40;3.20;;;2.47;;
10967;SDS011;5536;49.602;10.980;2024-01-07T06:17:08;2.90;;;2.60;;
10967;SDS011;5536;49.602;10.980;2024-01-07T06:19:35;5.07;;;3.27;;
10967;SDS011;5536;49.602;10.980;2024-01-07T06:22:02;2.77;;;2.50;;
10967;SDS011;5536;49.602;10.980;2024-01-07T06:24:29;2.67;;;2.40;;
10967;SDS011;5536;49.602;10.980;2024-01-07T06:26:58;4.40;;;2.50;;
10967;SDS011;5536;49.602;10.980;2024-01-07T06:29:28;3.13;;;2.77;;
10967;SDS011;5536;49.602;10.980;2024-01-07T06:31:54;5.30;;;3.63;;
10967;SDS011;5536;49.602;10.980;2024-01-07T06:34:22;5.70;;;2.87;;
10967;SDS011;5536;49.602;10.980;2024-01-07T06:36:49;3.90;;;3.30;;
10967;SDS011;5536;49.602;10.980;2024-01-07T06:39:16;3.50;;;3.20;;
10967;SDS011;5536;49.602;10.980;2024-01-07T06:41:43;5.27;;;3.77;;
10967;SDS011;5536;49.602;10.980;2024-01-07T06:44:11;3.40;;;3.10;;
10967;SDS011;5536;49.602;10.980;2024-01-07T06:46:38;2.93;;;2.63;;
10967;SDS011;5536;49.602;10.980;2024-01-07T06:49:05;4.40;;;3.30;;
10967;SDS011;5536;49.602;10.980;2024-01-07T06:51:33;2.60;;;2.40;;
10967;SDS011;5536;49.602;10.980;2024-01-07T06:54:00;4.33;;;2.90;;
10967;SDS011;5536;49.602;10.980;2024-01-07T06:56:28;4.30;;;3.30;;
10967;SDS011;5536;49.602;10.980;2024-01-07T06:58:55;3.37;;;3.07;;
10967;SDS011;5536;49.602;10.980;2024-01-07T07:01:23;5.63;;;3.23;;
10967;SDS011;5536;49.602;10.980;2024-01-07T07:03:50;4.20;;;3.80;;
10967;SDS011;5536;49.602;10.980;2024-01-07T07:06:18;3.90;;;3.40;;
10967;SDS011;5536;49.602;10.980;2024-01-07T07:08:45;4.40;;;3.73;;
10967;SDS011;5536;49.602;10.980;2024-01-07T07:11:12;5.57;;;3.53;;
10967;SDS011;5536;49.602;10.980;2024-01-07T07:13:39;2.93;;;2.70;;
10967;SDS011;5536;49.602;10.980;2024-01-07T07:16:06;6.00;;;3.53;;
10967;SDS011;5536;49.602;10.980;2024-01-07T07:18:35;7.57;;;3.83;;
10967;SDS011;5536;49.602;10.980;2024-01-07T07:21:02;7.03;;;4.97;;
10967;SDS011;5536;49.602;10.980;2024-01-07T07:23:30;6.23;;;4.13;;
10967;SDS011;5536;49.602;10.980;2024-01-07T07:25:57;5.67;;;3.33;;
10967;SDS011;5536;49.602;10.980;2024-01-07T07:28:24;5.53;;;3.90;;
10967;SDS011;5536;49.602;10.980;2024-01-07T07:30:51;4.83;;;3.87;;
10967;SDS011;5536;49.602;10.980;2024-01-07T07:33:19;5.47;;;4.20;;
10967;SDS011;5536;49.602;10.980;2024-01-07T07:35:47;4.37;;;3.73;;
10967;SDS011;5536;49.602;10.980;2024-01-07T07:38:15;4.37;;;3.93;;
10967;SDS011;5536;49.602;10.980;2024-01-07T07:40:42;6.20;;;4.03;;
10967;SDS011;5536;49.602;10.980;2024-01-07T07:43:10;8.67;;;5.07;;
10967;SDS011;5536;49.602;10.980;2024-01-07T07:45:37;6.73;;;4.23;;
10967;SDS011;5536;49.602;10.980;2024-01-07T07:48:05;5.53;;;4.20;;
10967;SDS011;5536;49.602;10.980;2024-01-07T07:50:32;5.93;;;3.97;;
10967;SDS011;5536;49.602;10.980;2024-01-07T07:53:01;4.27;;;3.87;;
10967;SDS011;5536;49.602;10.980;2024-01-07T07:55:29;12.50;;;4.87;;
10967;SDS011;5536;49.602;10.980;2024-01-07T07:57:56;4.20;;;3.57;;
10967;SDS011;5536;49.602;10.980;2024-01-07T08:00:24;8.13;;;4.60;;
10967;SDS011;5536;49.602;10.980;2024-01-07T08:02:51;5.67;;;3.60;;
10967;SDS011;5536;49.602;10.980;2024-01-07T08:05:18;3.70;;;3.30;;
10967;SDS011;5536;49.602;10.980;2024-01-07T08:07:46;4.63;;;3.80;;
10967;SDS011;5536;49.602;10.980;2024-01-07T08:10:14;4.73;;;4.17;;
10967;SDS011;5536;49.602;10.980;2024-01-07T08:12:42;5.10;;;4.07;;
10967;SDS011;5536;49.602;10.980;2024-01-07T08:15:09;3.43;;;3.13;;
10967;SDS011;5536;49.602;10.980;2024-01-07T08:17:37;4.07;;;3.67;;
10967;SDS011;5536;49.602;10.980;2024-01-07T08:20:05;6.97;;;4.10;;
10967;SDS011;5536;49.602;10.980;2024-01-07T08:22:33;6.53;;;3.97;;
10967;SDS011;5536;49.602;10.980;2024-01-07T08:25:01;4.83;;;3.67;;
10967;SDS011;5536;49.602;10.980;2024-01-07T08:27:29;4.70;;;3.57;;
10967;SDS011;5536;49.602;10.980;2024-01-07T08:29:57;4.80;;;3.93;;
10967;SDS011;5536;49.602;10.980;2024-01-07T08:32:28;4.17;;;3.77;;
10967;SDS011;5536;49.602;10.980;2024-01-07T08:34:55;4.10;;;3.70;;
10967;SDS011;5536;49.602;10.980;2024-01-07T08:37:22;9.67;;;4.43;;
10967;SDS011;5536;49.602;10.980;2024-01-07T08:39:49;4.43;;;3.93;;
10967;SDS011;5536;49.602;10.980;2024-01-07T08:42:17;5.63;;;3.67;;
10967;SDS011;5536;49.602;10.980;2024-01-07T08:44:46;3.87;;;3.17;;
10967;SDS011;5536;49.602;10.980;2024-01-07T08:47:17;4.87;;;4.13;;
10967;SDS011;5536;49.602;10.980;2024-01-07T08:49:44;6.43;;;3.57;;
10967;SDS011;5536;49.602;10.980;2024-01-07T08:52:11;6.13;;;4.77;;
10967;SDS011;5536;49.602;10.980;2024-01-07T08:54:38;4.43;;;3.70;;
10967;SDS011;5536;49.602;10.980;2024-01-07T08:57:05;6.80;;;4.00;;
10967;SDS011;5536;49.602;10.980;2024-01-07T08:59:33;9.97;;;4.77;;
10967;SDS011;5536;49.602;10.980;2024-01-07T09:02:02;4.43;;;4.03;;
10967;SDS011;5536;49.602;10.980;2024-01-07T09:04:29;4.73;;;3.57;;
10967;SDS011;5536;49.602;10.980;2024-01-07T09:06:57;5.13;;;4.10;;
10967;SDS011;5536;49.602;10.980;2024-01-07T09:09:24;5.60;;;4.40;;
10967;SDS011;5536;49.602;10.980;2024-01-07T09:11:52;13.00;;;4.10;;
10967;SDS011;5536;49.602;10.980;2024-01-07T09:14:22;4.37;;;3.43;;
10967;SDS011;5536;49.602;10.980;2024-01-07T09:16:50;9.97;;;4.23;;
10967;SDS011;5536;49.602;10.980;2024-01-07T09:19:20;8.27;;;4.80;;
10967;SDS011;5536;49.602;10.980;2024-01-07T09:21:47;6.93;;;4.60;;
10967;SDS011;5536;49.602;10.980;2024-01-07T09:24:14;5.47;;;4.40;;
10967;SDS011;5536;49.602;10.980;2024-01-07T09:26:42;8.50;;;4.43;;
10967;SDS011;5536;49.602;10.980;2024-01-07T09:29:09;5.10;;;4.07;;
10967;SDS011;5536;49.602;10.980;2024-01-07T09:31:36;5.50;;;4.63;;
10967;SDS011;5536;49.602;10.980;2024-01-07T09:34:04;7.77;;;3.83;;
10967;SDS011;5536;49.602;10.980;2024-01-07T09:36:33;3.33;;;3.10;;
10967;SDS011;5536;49.602;10.980;2024-01-07T09:39:02;6.47;;;4.37;;
10967;SDS011;5536;49.602;10.980;2024-01-07T09:41:30;8.20;;;4.00;;
10967;SDS011;5536;49.602;10.980;2024-01-07T09:43:57;4.10;;;3.37;;
10967;SDS011;5536;49.602;10.980;2024-01-07T09:46:25;6.07;;;4.20;;
10967;SDS011;5536;49.602;10.980;2024-01-07T09:48:55;4.47;;;3.93;;
10967;SDS011;5536;49.602;10.980;2024-01-07T09:51:22;4.10;;;3.57;;
10967;SDS011;5536;49.602;10.980;2024-01-07T09:53:51;5.77;;;3.90;;
10967;SDS011;5536;49.602;10.980;2024-01-07T09:56:24;8.80;;;4.73;;
10967;SDS011;5536;49.602;10.980;2024-01-07T09:58:52;6.57;;;4.93;;
10967;SDS011;5536;49.602;10.980;2024-01-07T10:01:21;5.47;;;4.63;;
10967;SDS011;5536;49.602;10.980;2024-01-07T10:03:51;4.50;;;4.07;;
10967;SDS011;5536;49.602;10.980;2024-01-07T10:06:19;8.97;;;5.23;;
10967;SDS011;5536;49.602;10.980;2024-01-07T10:08:47;6.17;;;4.43;;
10967;SDS011;5536;49.602;10.980;2024-01-07T10:11:16;5.50;;;4.50;;
10967;SDS011;5536;49.602;10.980;2024-01-07T10:13:44;7.30;;;4.83;;
10967;SDS011;5536;49.602;10.980;2024-01-07T10:16:14;5.73;;;4.20;;
10967;SDS011;5536;49.602;10.980;2024-01-07T10:18:41;5.70;;;4.33;;
10967;SDS011;5536;49.602;10.980;2024-01-07T10:21:12;4.47;;;3.77;;
10967;SDS011;5536;49.602;10.980;2024-01-07T10:23:39;5.70;;;4.37;;
10967;SDS011;5536;49.602;10.980;2024-01-07T10:26:06;6.53;;;4.67;;
10967;SDS011;5536;49.602;10.980;2024-01-07T10:28:35;4.93;;;3.90;;
10967;SDS011;5536;49.602;10.980;2024-01-07T10:31:05;7.63;;;4.97;;
10967;SDS011;5536;49.602;10.980;2024-01-07T10:33:33;5.00;;;4.13;;
10967;SDS011;5536;49.602;10.980;2024-01-07T10:36:01;6.63;;;4.53;;
10967;SDS011;5536;49.602;10.980;2024-01-07T10:38:30;5.67;;;4.33;;
10967;SDS011;5536;49.602;10.980;2024-01-07T10:40:58;6.53;;;4.40;;
10967;SDS011;5536;49.602;10.980;2024-01-07T10:43:28;7.17;;;4.63;;
10967;SDS011;5536;49.602;10.980;2024-01-07T10:46:00;7.93;;;4.47;;
10967;SDS011;5536;49.602;10.980;2024-01-07T10:48:30;7.03;;;4.13;;
10967;SDS011;5536;49.602;10.980;2024-01-07T10:50:59;6.17;;;4.70;;
10967;SDS011;5536;49.602;10.980;2024-01-07T10:53:28;5.50;;;3.87;;
10967;SDS011;5536;49.602;10.980;2024-01-07T10:56:00;6.07;;;4.10;;
10967;SDS011;5536;49.602;10.980;2024-01-07T10:58:30;6.20;;;4.67;;
10967;SDS011;5536;49.602;10.980;2024-01-07T11:01:01;5.40;;;4.33;;
10967;SDS011;5536;49.602;10.980;2024-01-07T11:03:33;3.87;;;3.57;;
10967;SDS011;5536;49.602;10.980;2024-01-07T11:06:08;4.63;;;3.67;;
10967;SDS011;5536;49.602;10.980;2024-01-07T11:08:46;6.23;;;4.10;;
10967;SDS011;5536;49.602;10.980;2024-01-07T11:11:25;5.73;;;3.70;;
10967;SDS011;5536;49.602;10.980;2024-01-07T11:13:53;6.33;;;4.60;;
10967;SDS011;5536;49.602;10.980;2024-01-07T11:19:12;6.10;;;4.37;;
10967;SDS011;5536;49.602;10.980;2024-01-07T11:21:46;3.83;;;3.07;;
10967;SDS011;5536;49.602;10.980;2024-01-07T11:27:08;4.30;;;3.90;;
10967;SDS011;5536;49.602;10.980;2024-01-07T11:29:35;5.63;;;4.07;;
10967;SDS011;5536;49.602;10.980;2024-01-07T11:32:04;7.27;;;4.37;;
10967;SDS011;5536;49.602;10.980;2024-01-07T11:34:39;5.10;;;4.20;;
10967;SDS011;5536;49.602;10.980;2024-01-07T11:37:09;6.50;;;4.20;;
10967;SDS011;5536;49.602;10.980;2024-01-07T11:39:38;8.03;;;4.80;;
10967;SDS011;5536;49.602;10.980;2024-01-07T11:42:06;14.47;;;4.90;;
10967;SDS011;5536;49.602;10.980;2024-01-07T11:44:35;5.00;;;4.20;;
10967;SDS011;5536;49.602;10.980;2024-01-07T11:47:04;10.03;;;3.77;;
10967;SDS011;5536;49.602;10.980;2024-01-07T11:49:32;9.00;;;4.40;;
10967;SDS011;5536;49.602;10.980;2024-01-07T11:51:59;11.07;;;4.13;;
10967;SDS011;5536;49.602;10.980;2024-01-07T11:54:28;5.43;;;4.20;;
10967;SDS011;5536;49.602;10.980;2024-01-07T11:56:56;6.77;;;3.30;;
10967;SDS011;5536;49.602;10.980;2024-01-07T11:59:23;6.80;;;4.67;;
10967;SDS011;5536;49.602;10.980;2024-01-07T12:01:51;4.00;;;3.07;;
10967;SDS011;5536;49.602;10.980;2024-01-07T12:04:21;4.47;;;3.33;;
10967;SDS011;5536;49.602;10.980;2024-01-07T12:06:49;4.53;;;2.83;;
10967;SDS011;5536;49.602;10.980;2024-01-07T12:09:16;6.47;;;3.83;;
10967;SDS011;5536;49.602;10.980;2024-01-07T12:11:43;4.97;;;3.20;;
10967;SDS011;5536;49.602;10.980;2024-01-07T12:14:11;5.03;;;3.90;;
10967;SDS011;5536;49.602;10.980;2024-01-07T12:16:39;4.50;;;3.53;;
10967;SDS011;5536;49.602;10.980;2024-01-07T12:19:07;4.43;;;3.50;;
10967;SDS011;5536;49.602;10.980;2024-01-07T12:21:37;5.63;;;3.63;;
10967;SDS011;5536;49.602;10.980;2024-01-07T12:24:05;4.63;;;3.10;;
10967;SDS011;5536;49.602;10.980;2024-01-07T12:26:32;6.70;;;2.87;;
10967;SDS011;5536;49.602;10.980;2024-01-07T12:29:00;5.10;;;3.63;;
10967;SDS011;5536;49.602;10.980;2024-01-07T12:31:29;9.23;;;3.23;;
10967;SDS011;5536;49.602;10.980;2024-01-07T12:33:58;6.97;;;4.00;;
10967;SDS011;5536;49.602;10.980;2024-01-07T12:36:25;3.83;;;3.00;;
10967;SDS011;5536;49.602;10.980;2024-01-07T12:38:54;8.40;;;3.40;;
10967;SDS011;5536;49.602;10.980;2024-01-07T12:41:21;3.30;;;2.73;;
10967;SDS011;5536;49.602;10.980;2024-01-07T12:43:49;6.43;;;3.73;;
10967;SDS011;5536;49.602;10.980;2024-01-07T12:46:16;4.50;;;3.27;;
10967;SDS011;5536;49.602;10.980;2024-01-07T12:48:44;4.13;;;3.13;;
10967;SDS011;5536;49.602;10.980;2024-01-07T12:51:11;3.50;;;2.90;;
10967;SDS011;5536;49.602;10.980;2024-01-07T12:53:39;4.17;;;3.10;;
10967;SDS011;5536;49.602;10.980;2024-01-07T12:56:08;3.53;;;2.60;;
10967;SDS011;5536;49.602;10.980;2024-01-07T12:58:35;4.57;;;2.73;;
10967;SDS011;5536;49.602;10.980;2024-01-07T13:01:02;3.43;;;2.60;;
10967;SDS011;5536;49.602;10.980;2024-01-07T13:03:29;3.93;;;2.83;;
10967;SDS011;5536;49.602;10.980;2024-01-07T13:05:56;3.00;;;2.57;;
10967;SDS011;5536;49.602;10.980;2024-01-07T13:08:24;3.03;;;2.53;;
10967;SDS011;5536;49.602;10.980;2024-01-07T13:10:52;4.87;;;2.70;;
10967;SDS011;5536;49.602;10.980;2024-01-07T13:13:22;8.37;;;2.97;;
10967;SDS011;5536;49.602;10.980;2024-01-07T13:15:49;3.90;;;2.97;;
10967;SDS011;5536;49.602;10.980;2024-01-07T13:18:16;3.33;;;2.50;;
10967;SDS011;5536;49.602;10.980;2024-01-07T13:20:44;3.83;;;2.83;;
10967;SDS011;5536;49.602;10.980;2024-01-07T13:23:11;5.63;;;1.97;;
10967;SDS011;5536;49.602;10.980;2024-01-07T13:25:38;3.80;;;2.37;;
10967;SDS011;5536;49.602;10.980;2024-01-07T13:28:05;7.50;;;3.00;;
10967;SDS011;5536;49.602;10.980;2024-01-07T13:30:37;4.20;;;3.00;;
10967;SDS011;5536;49.602;10.980;2024-01-07T13:33:05;4.43;;;3.27;;
10967;SDS011;5536;49.602;10.980;2024-01-07T13:35:33;4.73;;;3.30;;
10967;SDS011;5536;49.602;10.980;2024-01-07T13:38:00;3.47;;;3.17;;
10967;SDS011;5536;49.602;10.980;2024-01-07T13:40:28;2.43;;;2.23;;
10967;SDS011;5536;49.602;10.980;2024-01-07T13:42:55;2.80;;;2.37;;
10967;SDS011;5536;49.602;10.980;2024-01-07T13:45:22;2.57;;;2.37;;
10967;SDS011;5536;49.602;10.980;2024-01-07T13:47:51;2.77;;;2.30;;
10967;SDS011;5536;49.602;10.980;2024-01-07T13:50:19;3.93;;;2.43;;
10967;SDS011;5536;49.602;10.980;2024-01-07T13:52:46;2.73;;;2.43;;
10967;SDS011;5536;49.602;10.980;2024-01-07T13:55:13;2.70;;;2.47;;
10967;SDS011;5536;49.602;10.980;2024-01-07T13:57:40;2.50;;;2.30;;
10967;SDS011;5536;49.602;10.980;2024-01-07T14:00:08;4.97;;;2.43;;
10967;SDS011;5536;49.602;10.980;2024-01-07T14:02:37;3.70;;;2.50;;
10967;SDS011;5536;49.602;10.980;2024-01-07T14:05:07;2.63;;;2.40;;
10967;SDS011;5536;49.602;10.980;2024-01-07T14:07:35;19.77;;;8.97;;
10967;SDS011;5536;49.602;10.980;2024-01-07T14:10:02;8.90;;;5.57;;
10967;SDS011;5536;49.602;10.980;2024-01-07T14:12:31;15.53;;;7.10;;
10967;SDS011;5536;49.602;10.980;2024-01-07T14:14:58;26.90;;;9.10;;
10967;SDS011;5536;49.602;10.980;2024-01-07T14:17:25;3.07;;;2.60;;
10967;SDS011;5536;49.602;10.980;2024-01-07T14:19:52;3.23;;;2.37;;
10967;SDS011;5536;49.602;10.980;2024-01-07T14:22:21;5.53;;;2.30;;
10967;SDS011;5536;49.602;10.980;2024-01-07T14:24:48;4.73;;;2.80;;
10967;SDS011;5536;49.602;10.980;2024-01-07T14:27:15;4.83;;;1.90;;
10967;SDS011;5536;49.602;10.980;2024-01-07T14:29:43;2.60;;;2.40;;
10967;SDS011;5536;49.602;10.980;2024-01-07T14:32:10;2.27;;;2.10;;
10967;SDS011;5536;49.602;10.980;2024-01-07T14:34:38;3.67;;;2.43;;
10967;SDS011;5536;49.602;10.980;2024-01-07T14:37:06;2.03;;;1.93;;
10967;SDS011;5536;49.602;10.980;2024-01-07T14:39:36;2.43;;;2.23;;
10967;SDS011;5536;49.602;10.980;2024-01-07T14:42:04;3.03;;;2.40;;
10967;SDS011;5536;49.602;10.980;2024-01-07T14:44:31;1.97;;;1.87;;
10967;SDS011;5536;49.602;10.980;2024-01-07T14:46:58;2.53;;;2.33;;
10967;SDS011;5536;49.602;10.980;2024-01-07T14:49:25;2.80;;;2.57;;
10967;SDS011;5536;49.602;10.980;2024-01-07T14:51:52;2.37;;;2.17;;
10967;SDS011;5536;49.602;10.980;2024-01-07T14:54:20;3.00;;;2.67;;
10967;SDS011;5536;49.602;10.980;2024-01-07T14:56:49;2.53;;;2.30;;